sensor_id;sensor_type;location;lat;lon;timestamp;pressure;altitude;pressure_sealevel;temperature
60936;BMP280;46804;51.786;19.520;2023-12-29T00:03:52;155195.50;;;4.09
60936;BMP280;46804;51.786;19.520;2023-12-29T00:07:53;155194.22;;;4.09
60936;BMP280;46804;51.786;19.520;2023-12-29T00:11:54;155195.50;;;4.09
60936;BMP280;46804;51.786;19.520;2023-12-29T00:15:55;155198.03;;;4.10
60936;BMP280;46804;51.786;19.520;2023-12-29T00:19:56;155203.13;;;4.12
60936;BMP280;46804;51.786;19.520;2023-12-29T00:23:57;155184.00;;;4.05
60936;BMP280;46804;51.786;19.520;2023-12-29T00:27:57;155175.03;;;4.02
60936;BMP280;46804;51.786;19.520;2023-12-29T00:31:58;155144.44;;;3.90
60936;BMP280;46804;51.786;19.520;2023-12-29T00:36:00;155131.63;;;3.85
60936;BMP280;46804;51.786;19.520;2023-12-29T00:40:01;155113.75;;;3.78
60936;BMP280;46804;51.786;19.520;2023-12-29T00:44:02;155104.84;;;3.74
60936;BMP280;46804;51.786;19.520;2023-12-29T00:48:03;155098.47;;;3.72
60936;BMP280;46804;51.786;19.520;2023-12-29T00:52:04;155103.53;;;3.74
60936;BMP280;46804;51.786;19.520;2023-12-29T00:56:11;155111.22;;;3.77
60936;BMP280;46804;51.786;19.520;2023-12-29T01:00:12;155138.06;;;3.87
60936;BMP280;46804;51.786;19.520;2023-12-29T01:04:13;155140.59;;;3.88
60936;BMP280;46804;51.786;19.520;2023-12-29T01:08:14;155176.31;;;4.02
60936;BMP280;46804;51.786;19.520;2023-12-29T01:12:15;155167.41;;;3.99
60936;BMP280;46804;51.786;19.520;2023-12-29T01:16:15;155157.19;;;3.95
60936;BMP280;46804;51.786;19.520;2023-12-29T01:20:16;155164.81;;;3.98
60936;BMP280;46804;51.786;19.520;2023-12-29T01:24:17;155148.22;;;3.91
60936;BMP280;46804;51.786;19.520;2023-12-29T01:28:18;155141.84;;;3.89
60936;BMP280;46804;51.786;19.520;2023-12-29T01:32:19;155101.00;;;3.73
60936;BMP280;46804;51.786;19.520;2023-12-29T01:36:20;155060.19;;;3.57
60936;BMP280;46804;51.786;19.520;2023-12-29T01:40:21;155027.00;;;3.44
60936;BMP280;46804;51.786;19.520;2023-12-29T01:44:22;155020.63;;;3.42
60936;BMP280;46804;51.786;19.520;2023-12-29T01:48:23;155010.41;;;3.38
60936;BMP280;46804;51.786;19.520;2023-12-29T01:52:24;154992.53;;;3.31
60936;BMP280;46804;51.786;19.520;2023-12-29T01:56:25;154951.72;;;3.15
60936;BMP280;46804;51.786;19.520;2023-12-29T02:00:26;154923.66;;;3.04
60936;BMP280;46804;51.786;19.520;2023-12-29T02:04:28;154899.38;;;2.95
60936;BMP280;46804;51.786;19.520;2023-12-29T02:08:29;154882.81;;;2.89
60936;BMP280;46804;51.786;19.520;2023-12-29T02:12:30;154884.06;;;2.89
60936;BMP280;46804;51.786;19.520;2023-12-29T02:16:42;154876.44;;;2.86
60936;BMP280;46804;51.786;19.520;2023-12-29T02:20:45;154891.75;;;2.92
60936;BMP280;46804;51.786;19.520;2023-12-29T02:24:49;154940.19;;;3.11
60936;BMP280;46804;51.786;19.520;2023-12-29T02:28:56;154921.09;;;3.03
60936;BMP280;46804;51.786;19.520;2023-12-29T02:33:05;154924.91;;;3.05
60936;BMP280;46804;51.786;19.520;2023-12-29T02:37:09;154965.72;;;3.21
60936;BMP280;46804;51.786;19.520;2023-12-29T02:41:11;154959.38;;;3.18
60936;BMP280;46804;51.786;19.520;2023-12-29T02:45:11;154950.41;;;3.15
60936;BMP280;46804;51.786;19.520;2023-12-29T02:49:12;154987.44;;;3.29
60936;BMP280;46804;51.786;19.520;2023-12-29T02:53:13;155009.13;;;3.38
60936;BMP280;46804;51.786;19.520;2023-12-29T02:57:14;155030.84;;;3.46
60936;BMP280;46804;51.786;19.520;2023-12-29T03:01:14;155005.28;;;3.36
60936;BMP280;46804;51.786;19.520;2023-12-29T03:05:15;155005.28;;;3.36
60936;BMP280;46804;51.786;19.520;2023-12-29T03:09:16;154995.06;;;3.32
60936;BMP280;46804;51.786;19.520;2023-12-29T03:13:17;154997.66;;;3.33
60936;BMP280;46804;51.786;19.520;2023-12-29T03:17:17;154997.66;;;3.33
60936;BMP280;46804;51.786;19.520;2023-12-29T03:21:18;154993.81;;;3.32
60936;BMP280;46804;51.786;19.520;2023-12-29T03:25:19;154997.66;;;3.33
60936;BMP280;46804;51.786;19.520;2023-12-29T03:29:19;155020.63;;;3.42
60936;BMP280;46804;51.786;19.520;2023-12-29T03:33:20;155029.53;;;3.45
60936;BMP280;46804;51.786;19.520;2023-12-29T03:37:21;155048.69;;;3.53
60936;BMP280;46804;51.786;19.520;2023-12-29T03:41:22;155095.91;;;3.71
60936;BMP280;46804;51.786;19.520;2023-12-29T03:45:22;155111.22;;;3.77
60936;BMP280;46804;51.786;19.520;2023-12-29T03:49:23;155102.28;;;3.73
60936;BMP280;46804;51.786;19.520;2023-12-29T03:53:24;155103.53;;;3.74
60936;BMP280;46804;51.786;19.520;2023-12-29T03:57:24;155101.00;;;3.73
60936;BMP280;46804;51.786;19.520;2023-12-29T04:01:25;155095.91;;;3.71
60936;BMP280;46804;51.786;19.520;2023-12-29T04:05:28;155101.00;;;3.73
60936;BMP280;46804;51.786;19.520;2023-12-29T04:09:29;155107.38;;;3.75
60936;BMP280;46804;51.786;19.520;2023-12-29T04:13:30;155099.75;;;3.72
60936;BMP280;46804;51.786;19.520;2023-12-29T04:17:30;155097.16;;;3.71
60936;BMP280;46804;51.786;19.520;2023-12-29T04:21:31;155115.06;;;3.78
60936;BMP280;46804;51.786;19.520;2023-12-29T04:25:32;155130.34;;;3.84
60936;BMP280;46804;51.786;19.520;2023-12-29T04:29:33;155166.13;;;3.98
60936;BMP280;46804;51.786;19.520;2023-12-29T04:33:34;155166.13;;;3.98
60936;BMP280;46804;51.786;19.520;2023-12-29T04:37:34;155178.88;;;4.03
60936;BMP280;46804;51.786;19.520;2023-12-29T04:41:35;155223.59;;;4.20
60936;BMP280;46804;51.786;19.520;2023-12-29T04:45:36;155228.69;;;4.22
60936;BMP280;46804;51.786;19.520;2023-12-29T04:49:36;155269.53;;;4.38
60936;BMP280;46804;51.786;19.520;2023-12-29T04:53:37;155272.06;;;4.39
60936;BMP280;46804;51.786;19.520;2023-12-29T04:57:38;155292.53;;;4.47
60936;BMP280;46804;51.786;19.520;2023-12-29T05:01:39;155309.13;;;4.53
60936;BMP280;46804;51.786;19.520;2023-12-29T05:05:40;155325.75;;;4.60
60936;BMP280;46804;51.786;19.520;2023-12-29T05:09:40;155341.09;;;4.66
60936;BMP280;46804;51.786;19.520;2023-12-29T05:13:41;155338.50;;;4.65
60936;BMP280;46804;51.786;19.520;2023-12-29T05:17:42;155319.38;;;4.57
60936;BMP280;46804;51.786;19.520;2023-12-29T05:21:43;155302.75;;;4.51
60936;BMP280;46804;51.786;19.520;2023-12-29T05:25:43;155282.31;;;4.43
60936;BMP280;46804;51.786;19.520;2023-12-29T05:29:44;155275.94;;;4.40
60936;BMP280;46804;51.786;19.520;2023-12-29T05:33:45;155277.19;;;4.41
60936;BMP280;46804;51.786;19.520;2023-12-29T05:37:45;155277.19;;;4.41
60936;BMP280;46804;51.786;19.520;2023-12-29T05:41:46;155261.91;;;4.35
60936;BMP280;46804;51.786;19.520;2023-12-29T05:45:46;155259.31;;;4.34
60936;BMP280;46804;51.786;19.520;2023-12-29T05:49:47;155233.81;;;4.24
60936;BMP280;46804;51.786;19.520;2023-12-29T05:53:48;155237.59;;;4.26
60936;BMP280;46804;51.786;19.520;2023-12-29T05:57:49;155235.06;;;4.25
60936;BMP280;46804;51.786;19.520;2023-12-29T06:01:49;155242.72;;;4.28
60936;BMP280;46804;51.786;19.520;2023-12-29T06:05:50;155260.59;;;4.35
60936;BMP280;46804;51.786;19.520;2023-12-29T06:09:51;155268.28;;;4.38
60936;BMP280;46804;51.786;19.520;2023-12-29T06:13:51;155287.41;;;4.45
60936;BMP280;46804;51.786;19.520;2023-12-29T06:17:52;155291.25;;;4.46
60936;BMP280;46804;51.786;19.520;2023-12-29T06:21:53;155315.53;;;4.56
60936;BMP280;46804;51.786;19.520;2023-12-29T06:25:53;155338.50;;;4.65
60936;BMP280;46804;51.786;19.520;2023-12-29T06:29:54;155364.06;;;4.74
60936;BMP280;46804;51.786;19.520;2023-12-29T06:33:55;155387.06;;;4.83
60936;BMP280;46804;51.786;19.520;2023-12-29T06:37:56;155412.59;;;4.93
60936;BMP280;46804;51.786;19.520;2023-12-29T06:41:56;155448.41;;;5.07
60936;BMP280;46804;51.786;19.520;2023-12-29T06:45:57;155471.41;;;5.16
60936;BMP280;46804;51.786;19.520;2023-12-29T06:49:58;155479.06;;;5.19
60936;BMP280;46804;51.786;19.520;2023-12-29T06:53:58;155499.53;;;5.27
60936;BMP280;46804;51.786;19.520;2023-12-29T06:58:00;155503.31;;;5.28
60936;BMP280;46804;51.786;19.520;2023-12-29T07:02:02;155518.66;;;5.34
60936;BMP280;46804;51.786;19.520;2023-12-29T07:06:03;155514.81;;;5.33
60936;BMP280;46804;51.786;19.520;2023-12-29T07:10:04;155544.25;;;5.44
60936;BMP280;46804;51.786;19.520;2023-12-29T07:14:06;155568.53;;;5.53
60936;BMP280;46804;51.786;19.520;2023-12-29T07:18:07;155548.06;;;5.45
60936;BMP280;46804;51.786;19.520;2023-12-29T07:22:08;155500.78;;;5.27
60936;BMP280;46804;51.786;19.520;2023-12-29T07:26:09;155499.53;;;5.27
60936;BMP280;46804;51.786;19.520;2023-12-29T07:30:10;155490.56;;;5.23
60936;BMP280;46804;51.786;19.520;2023-12-29T07:34:11;155504.63;;;5.29
60936;BMP280;46804;51.786;19.520;2023-12-29T07:38:11;155513.56;;;5.32
60936;BMP280;46804;51.786;19.520;2023-12-29T07:42:12;155507.16;;;5.30
60936;BMP280;46804;51.786;19.520;2023-12-29T07:46:13;155502.06;;;5.28
60936;BMP280;46804;51.786;19.520;2023-12-29T07:50:13;155509.75;;;5.31
60936;BMP280;46804;51.786;19.520;2023-12-29T07:54:14;155527.63;;;5.38
60936;BMP280;46804;51.786;19.520;2023-12-29T07:58:15;155523.78;;;5.36
60936;BMP280;46804;51.786;19.520;2023-12-29T08:02:16;155536.56;;;5.41
60936;BMP280;46804;51.786;19.520;2023-12-29T08:06:17;155544.25;;;5.44
60936;BMP280;46804;51.786;19.520;2023-12-29T08:10:17;155554.44;;;5.48
60936;BMP280;46804;51.786;19.520;2023-12-29T08:14:18;155573.66;;;5.55
60936;BMP280;46804;51.786;19.520;2023-12-29T08:18:19;155592.81;;;5.63
60936;BMP280;46804;51.786;19.520;2023-12-29T08:22:20;155592.81;;;5.63
60936;BMP280;46804;51.786;19.520;2023-12-29T08:26:20;155591.53;;;5.62
60936;BMP280;46804;51.786;19.520;2023-12-29T08:30:21;155586.41;;;5.60
60936;BMP280;46804;51.786;19.520;2023-12-29T08:34:22;155597.91;;;5.65
60936;BMP280;46804;51.786;19.520;2023-12-29T08:38:23;155612.00;;;5.70
60936;BMP280;46804;51.786;19.520;2023-12-29T08:42:23;155636.34;;;5.79
60936;BMP280;46804;51.786;19.520;2023-12-29T08:46:24;155673.44;;;5.94
60936;BMP280;46804;51.786;19.520;2023-12-29T08:50:25;155711.75;;;6.08
60936;BMP280;46804;51.786;19.520;2023-12-29T08:54:26;155729.66;;;6.15
60936;BMP280;46804;51.786;19.520;2023-12-29T08:58:27;155756.53;;;6.26
60936;BMP280;46804;51.786;19.520;2023-12-29T09:02:28;155814.06;;;6.48
60936;BMP280;46804;51.786;19.520;2023-12-29T09:06:29;155834.56;;;6.56
60936;BMP280;46804;51.786;19.520;2023-12-29T09:10:29;155870.38;;;6.70
60936;BMP280;46804;51.786;19.520;2023-12-29T09:14:30;155871.69;;;6.70
60936;BMP280;46804;51.786;19.520;2023-12-29T09:18:33;155904.97;;;6.83
60936;BMP280;46804;51.786;19.520;2023-12-29T09:22:34;155931.81;;;6.93
60936;BMP280;46804;51.786;19.520;2023-12-29T09:26:34;155913.88;;;6.86
60936;BMP280;46804;51.786;19.520;2023-12-29T09:30:35;155894.72;;;6.79
60936;BMP280;46804;51.786;19.520;2023-12-29T09:34:36;155888.31;;;6.77
60936;BMP280;46804;51.786;19.520;2023-12-29T09:38:36;155898.53;;;6.80
60936;BMP280;46804;51.786;19.520;2023-12-29T09:42:40;155908.78;;;6.84
60936;BMP280;46804;51.786;19.520;2023-12-29T09:46:45;155938.19;;;6.96
60936;BMP280;46804;51.786;19.520;2023-12-29T09:50:49;155959.94;;;7.04
60936;BMP280;46804;51.786;19.520;2023-12-29T09:54:51;155986.84;;;7.14
60936;BMP280;46804;51.786;19.520;2023-12-29T09:58:54;156003.50;;;7.21
60936;BMP280;46804;51.786;19.520;2023-12-29T10:02:55;156030.38;;;7.31
60936;BMP280;46804;51.786;19.520;2023-12-29T10:06:56;156080.31;;;7.50
60936;BMP280;46804;51.786;19.520;2023-12-29T10:11:01;156139.19;;;7.73
60936;BMP280;46804;51.786;19.520;2023-12-29T10:19:23;156199.41;;;7.96
60936;BMP280;46804;51.786;19.520;2023-12-29T10:23:39;156236.56;;;8.11
60936;BMP280;46804;51.786;19.520;2023-12-29T10:27:40;156273.75;;;8.25
60936;BMP280;46804;51.786;19.520;2023-12-29T10:31:41;156291.66;;;8.32
60936;BMP280;46804;51.786;19.520;2023-12-29T10:35:56;156319.84;;;8.43
60936;BMP280;46804;51.786;19.520;2023-12-29T10:39:57;156342.91;;;8.51
60936;BMP280;46804;51.786;19.520;2023-12-29T10:44:06;156394.16;;;8.71
60936;BMP280;46804;51.786;19.520;2023-12-29T10:48:07;156427.50;;;8.84
60936;BMP280;46804;51.786;19.520;2023-12-29T10:52:15;156444.16;;;8.90
60936;BMP280;46804;51.786;19.520;2023-12-29T10:56:17;156476.22;;;9.03
60936;BMP280;46804;51.786;19.520;2023-12-29T11:00:29;156483.88;;;9.06
60936;BMP280;46804;51.786;19.520;2023-12-29T11:04:30;156453.09;;;8.94
60936;BMP280;46804;51.786;19.520;2023-12-29T11:08:35;156473.63;;;9.02
60936;BMP280;46804;51.786;19.520;2023-12-29T11:12:37;156482.63;;;9.05
60936;BMP280;46804;51.786;19.520;2023-12-29T11:16:39;156514.63;;;9.17
60936;BMP280;46804;51.786;19.520;2023-12-29T11:20:41;156536.44;;;9.26
60936;BMP280;46804;51.786;19.520;2023-12-29T11:24:42;156503.09;;;9.13
60936;BMP280;46804;51.786;19.520;2023-12-29T11:28:43;156495.41;;;9.10
60936;BMP280;46804;51.786;19.520;2023-12-29T11:32:51;156468.50;;;9.00
60936;BMP280;46804;51.786;19.520;2023-12-29T11:37:00;156474.91;;;9.02
60936;BMP280;46804;51.786;19.520;2023-12-29T11:41:25;156460.81;;;8.97
60936;BMP280;46804;51.786;19.520;2023-12-29T11:45:32;156539.03;;;9.27
60936;BMP280;46804;51.786;19.520;2023-12-29T11:49:59;156536.44;;;9.26
60936;BMP280;46804;51.786;19.520;2023-12-29T11:54:03;156567.22;;;9.38
60936;BMP280;46804;51.786;19.520;2023-12-29T11:58:24;156560.81;;;9.35
60936;BMP280;46804;51.786;19.520;2023-12-29T12:02:28;156601.84;;;9.51
60936;BMP280;46804;51.786;19.520;2023-12-29T12:06:38;156599.25;;;9.50
60936;BMP280;46804;51.786;19.520;2023-12-29T12:10:39;156597.97;;;9.49
60936;BMP280;46804;51.786;19.520;2023-12-29T12:18:46;156691.63;;;9.85
60936;BMP280;46804;51.786;19.520;2023-12-29T12:22:50;156745.53;;;10.06
60936;BMP280;46804;51.786;19.520;2023-12-29T12:26:50;156764.78;;;10.14
60936;BMP280;46804;51.786;19.520;2023-12-29T12:30:51;156683.91;;;9.82
60936;BMP280;46804;51.786;19.520;2023-12-29T12:34:54;156703.22;;;9.90
60936;BMP280;46804;51.786;19.520;2023-12-29T12:38:57;156690.31;;;9.85
60936;BMP280;46804;51.786;19.520;2023-12-29T12:42:58;156730.13;;;10.00
60936;BMP280;46804;51.786;19.520;2023-12-29T12:47:05;156698.03;;;9.88
60936;BMP280;46804;51.786;19.520;2023-12-29T12:51:07;156705.75;;;9.91
60936;BMP280;46804;51.786;19.520;2023-12-29T12:55:08;156698.03;;;9.88
60936;BMP280;46804;51.786;19.520;2023-12-29T12:59:09;156737.84;;;10.03
60936;BMP280;46804;51.786;19.520;2023-12-29T13:03:10;156708.34;;;9.92
60936;BMP280;46804;51.786;19.520;2023-12-29T13:07:15;156705.75;;;9.91
60936;BMP280;46804;51.786;19.520;2023-12-29T13:11:18;156682.63;;;9.82
60936;BMP280;46804;51.786;19.520;2023-12-29T13:15:22;156667.22;;;9.76
60936;BMP280;46804;51.786;19.520;2023-12-29T13:19:24;156678.75;;;9.81
60936;BMP280;46804;51.786;19.520;2023-12-29T13:23:25;156659.53;;;9.73
60936;BMP280;46804;51.786;19.520;2023-12-29T13:27:27;156667.22;;;9.76
60936;BMP280;46804;51.786;19.520;2023-12-29T13:31:28;156685.16;;;9.83
60936;BMP280;46804;51.786;19.520;2023-12-29T13:35:38;156655.69;;;9.72
60936;BMP280;46804;51.786;19.520;2023-12-29T13:39:52;156626.19;;;9.60
60936;BMP280;46804;51.786;19.520;2023-12-29T13:43:54;156590.31;;;9.47
60936;BMP280;46804;51.786;19.520;2023-12-29T13:47:57;156554.38;;;9.33
60936;BMP280;46804;51.786;19.520;2023-12-29T13:52:00;156549.25;;;9.31
60936;BMP280;46804;51.786;19.520;2023-12-29T13:56:09;156554.38;;;9.33
60936;BMP280;46804;51.786;19.520;2023-12-29T14:00:14;156539.03;;;9.27
60936;BMP280;46804;51.786;19.520;2023-12-29T14:04:15;156515.94;;;9.18
60936;BMP280;46804;51.786;19.520;2023-12-29T14:08:23;156509.50;;;9.15
60936;BMP280;46804;51.786;19.520;2023-12-29T14:12:25;156482.63;;;9.05
60936;BMP280;46804;51.786;19.520;2023-12-29T14:16:26;156464.69;;;8.98
60936;BMP280;46804;51.786;19.520;2023-12-29T14:20:33;156435.16;;;8.87
60936;BMP280;46804;51.786;19.520;2023-12-29T14:24:35;156408.28;;;8.77
60936;BMP280;46804;51.786;19.520;2023-12-29T14:28:36;156398.03;;;8.73
60936;BMP280;46804;51.786;19.520;2023-12-29T14:32:36;156398.03;;;8.73
60936;BMP280;46804;51.786;19.520;2023-12-29T14:36:38;156386.50;;;8.68
60936;BMP280;46804;51.786;19.520;2023-12-29T14:40:39;156342.91;;;8.51
60936;BMP280;46804;51.786;19.520;2023-12-29T14:44:40;156321.13;;;8.43
60936;BMP280;46804;51.786;19.520;2023-12-29T14:48:41;156304.47;;;8.37
60936;BMP280;46804;51.786;19.520;2023-12-29T14:52:42;156290.41;;;8.31
60936;BMP280;46804;51.786;19.520;2023-12-29T14:56:43;156290.41;;;8.31
60936;BMP280;46804;51.786;19.520;2023-12-29T15:00:44;156285.25;;;8.29
60936;BMP280;46804;51.786;19.520;2023-12-29T15:04:47;156273.75;;;8.25
60936;BMP280;46804;51.786;19.520;2023-12-29T15:08:49;156246.81;;;8.14
60936;BMP280;46804;51.786;19.520;2023-12-29T15:12:50;156241.69;;;8.13
60936;BMP280;46804;51.786;19.520;2023-12-29T15:16:51;156230.19;;;8.08
60936;BMP280;46804;51.786;19.520;2023-12-29T15:20:51;156223.72;;;8.06
60936;BMP280;46804;51.786;19.520;2023-12-29T15:24:52;156208.34;;;8.00
60936;BMP280;46804;51.786;19.520;2023-12-29T15:28:53;156198.09;;;7.96
60936;BMP280;46804;51.786;19.520;2023-12-29T15:32:55;156198.09;;;7.96
60936;BMP280;46804;51.786;19.520;2023-12-29T15:36:56;156191.69;;;7.93
60936;BMP280;46804;51.786;19.520;2023-12-29T15:40:57;156187.88;;;7.92
60936;BMP280;46804;51.786;19.520;2023-12-29T15:44:58;156203.22;;;7.98
60936;BMP280;46804;51.786;19.520;2023-12-29T15:48:58;156190.41;;;7.93
60936;BMP280;46804;51.786;19.520;2023-12-29T15:53:01;156180.16;;;7.89
60936;BMP280;46804;51.786;19.520;2023-12-29T15:57:02;156185.28;;;7.91
60936;BMP280;46804;51.786;19.520;2023-12-29T16:01:08;156199.41;;;7.96
60936;BMP280;46804;51.786;19.520;2023-12-29T16:05:08;156192.94;;;7.94
60936;BMP280;46804;51.786;19.520;2023-12-29T16:09:09;156199.41;;;7.96
60936;BMP280;46804;51.786;19.520;2023-12-29T16:13:10;156185.28;;;7.91
60936;BMP280;46804;51.786;19.520;2023-12-29T16:17:11;156187.88;;;7.92
60936;BMP280;46804;51.786;19.520;2023-12-29T16:21:12;156195.53;;;7.95
60936;BMP280;46804;51.786;19.520;2023-12-29T16:25:13;156190.41;;;7.93
60936;BMP280;46804;51.786;19.520;2023-12-29T16:29:14;156201.94;;;7.97
60936;BMP280;46804;51.786;19.520;2023-12-29T16:33:15;156200.69;;;7.97
60936;BMP280;46804;51.786;19.520;2023-12-29T16:37:16;156213.47;;;8.02
60936;BMP280;46804;51.786;19.520;2023-12-29T16:41:19;156199.41;;;7.96
60936;BMP280;46804;51.786;19.520;2023-12-29T16:45:20;156223.72;;;8.06
60936;BMP280;46804;51.786;19.520;2023-12-29T16:49:20;156230.19;;;8.08
60936;BMP280;46804;51.786;19.520;2023-12-29T16:53:21;156225.00;;;8.06
60936;BMP280;46804;51.786;19.520;2023-12-29T16:57:23;156239.16;;;8.12
60936;BMP280;46804;51.786;19.520;2023-12-29T17:01:24;156223.72;;;8.06
60936;BMP280;46804;51.786;19.520;2023-12-29T17:05:24;156199.41;;;7.96
60936;BMP280;46804;51.786;19.520;2023-12-29T17:09:25;156187.88;;;7.92
60936;BMP280;46804;51.786;19.520;2023-12-29T17:13:26;156192.94;;;7.94
60936;BMP280;46804;51.786;19.520;2023-12-29T17:17:26;156184.03;;;7.90
60936;BMP280;46804;51.786;19.520;2023-12-29T17:21:27;156208.34;;;8.00
60936;BMP280;46804;51.786;19.520;2023-12-29T17:25:28;156213.47;;;8.02
60936;BMP280;46804;51.786;19.520;2023-12-29T17:29:29;156225.00;;;8.06
60936;BMP280;46804;51.786;19.520;2023-12-29T17:33:29;156245.56;;;8.14
60936;BMP280;46804;51.786;19.520;2023-12-29T17:37:30;156254.50;;;8.17
60936;BMP280;46804;51.786;19.520;2023-12-29T17:41:33;156250.69;;;8.16
60936;BMP280;46804;51.786;19.520;2023-12-29T17:45:33;156258.34;;;8.19
60936;BMP280;46804;51.786;19.520;2023-12-29T17:49:34;156263.47;;;8.21
60936;BMP280;46804;51.786;19.520;2023-12-29T17:53:35;156260.94;;;8.20
60936;BMP280;46804;51.786;19.520;2023-12-29T17:57:39;156267.34;;;8.22
60936;BMP280;46804;51.786;19.520;2023-12-29T18:01:41;156280.13;;;8.27
60936;BMP280;46804;51.786;19.520;2023-12-29T18:05:42;156295.53;;;8.33
60936;BMP280;46804;51.786;19.520;2023-12-29T18:09:44;156295.53;;;8.33
60936;BMP280;46804;51.786;19.520;2023-12-29T18:13:45;156332.66;;;8.47
60936;BMP280;46804;51.786;19.520;2023-12-29T18:17:46;156339.06;;;8.50
60936;BMP280;46804;51.786;19.520;2023-12-29T18:21:46;156349.31;;;8.54
60936;BMP280;46804;51.786;19.520;2023-12-29T18:25:47;156371.09;;;8.62
60936;BMP280;46804;51.786;19.520;2023-12-29T18:29:49;156376.22;;;8.64
60936;BMP280;46804;51.786;19.520;2023-12-29T18:33:50;156398.03;;;8.73
60936;BMP280;46804;51.786;19.520;2023-12-29T18:37:51;156404.44;;;8.75
60936;BMP280;46804;51.786;19.520;2023-12-29T18:41:52;156415.97;;;8.80
60936;BMP280;46804;51.786;19.520;2023-12-29T18:45:53;156410.81;;;8.78
60936;BMP280;46804;51.786;19.520;2023-12-29T18:49:53;156413.38;;;8.79
60936;BMP280;46804;51.786;19.520;2023-12-29T18:53:54;156440.28;;;8.89
60936;BMP280;46804;51.786;19.520;2023-12-29T18:57:55;156444.16;;;8.90
60936;BMP280;46804;51.786;19.520;2023-12-29T19:01:56;156454.41;;;8.94
60936;BMP280;46804;51.786;19.520;2023-12-29T19:05:58;156449.28;;;8.92
60936;BMP280;46804;51.786;19.520;2023-12-29T19:09:59;156442.88;;;8.90
60936;BMP280;46804;51.786;19.520;2023-12-29T19:14:00;156442.88;;;8.90
60936;BMP280;46804;51.786;19.520;2023-12-29T19:18:01;156453.09;;;8.94
60936;BMP280;46804;51.786;19.520;2023-12-29T19:22:06;156450.56;;;8.93
60936;BMP280;46804;51.786;19.520;2023-12-29T19:30:19;156441.56;;;8.89
60936;BMP280;46804;51.786;19.520;2023-12-29T19:34:20;156448.00;;;8.92
60936;BMP280;46804;51.786;19.520;2023-12-29T19:38:21;156430.03;;;8.85
60936;BMP280;46804;51.786;19.520;2023-12-29T19:42:24;156418.50;;;8.80
60936;BMP280;46804;51.786;19.520;2023-12-29T19:46:25;156414.69;;;8.79
60936;BMP280;46804;51.786;19.520;2023-12-29T19:50:25;156408.28;;;8.77
60936;BMP280;46804;51.786;19.520;2023-12-29T19:54:26;156414.69;;;8.79
60936;BMP280;46804;51.786;19.520;2023-12-29T19:58:27;156408.28;;;8.77
60936;BMP280;46804;51.786;19.520;2023-12-29T20:02:28;156415.97;;;8.80
60936;BMP280;46804;51.786;19.520;2023-12-29T20:06:29;156403.16;;;8.75
60936;BMP280;46804;51.786;19.520;2023-12-29T20:10:29;156392.91;;;8.71
60936;BMP280;46804;51.786;19.520;2023-12-29T20:14:30;156405.69;;;8.76
60936;BMP280;46804;51.786;19.520;2023-12-29T20:18:31;156405.69;;;8.76
60936;BMP280;46804;51.786;19.520;2023-12-29T20:22:32;156409.56;;;8.77
60936;BMP280;46804;51.786;19.520;2023-12-29T20:26:33;156385.19;;;8.68
60936;BMP280;46804;51.786;19.520;2023-12-29T20:30:33;156404.44;;;8.75
60936;BMP280;46804;51.786;19.520;2023-12-29T20:34:34;156405.69;;;8.76
60936;BMP280;46804;51.786;19.520;2023-12-29T20:38:36;156386.50;;;8.68
60936;BMP280;46804;51.786;19.520;2023-12-29T20:42:37;156385.19;;;8.68
60936;BMP280;46804;51.786;19.520;2023-12-29T20:46:41;156390.31;;;8.70
60936;BMP280;46804;51.786;19.520;2023-12-29T20:50:43;156390.31;;;8.70
60936;BMP280;46804;51.786;19.520;2023-12-29T20:54:45;156403.16;;;8.75
60936;BMP280;46804;51.786;19.520;2023-12-29T20:58:45;156403.16;;;8.75
60936;BMP280;46804;51.786;19.520;2023-12-29T21:02:47;156408.28;;;8.77
60936;BMP280;46804;51.786;19.520;2023-12-29T21:06:48;156419.81;;;8.81
60936;BMP280;46804;51.786;19.520;2023-12-29T21:10:48;156428.75;;;8.84
60936;BMP280;46804;51.786;19.520;2023-12-29T21:14:51;156448.00;;;8.92
60936;BMP280;46804;51.786;19.520;2023-12-29T21:18:52;156460.81;;;8.97
60936;BMP280;46804;51.786;19.520;2023-12-29T21:22:52;156462.09;;;8.97
60936;BMP280;46804;51.786;19.520;2023-12-29T21:26:53;156485.16;;;9.06
60936;BMP280;46804;51.786;19.520;2023-12-29T21:30:56;156515.94;;;9.18
60936;BMP280;46804;51.786;19.520;2023-12-29T21:34:56;156514.63;;;9.17
60936;BMP280;46804;51.786;19.520;2023-12-29T21:38:59;156533.91;;;9.25
60936;BMP280;46804;51.786;19.520;2023-12-29T21:43:00;156551.81;;;9.32
60936;BMP280;46804;51.786;19.520;2023-12-29T21:47:01;156569.78;;;9.39
60936;BMP280;46804;51.786;19.520;2023-12-29T21:51:09;156581.31;;;9.43
60936;BMP280;46804;51.786;19.520;2023-12-29T21:55:15;156569.78;;;9.39
60936;BMP280;46804;51.786;19.520;2023-12-29T21:59:16;156531.28;;;9.24
60936;BMP280;46804;51.786;19.520;2023-12-29T22:03:16;156523.63;;;9.21
60936;BMP280;46804;51.786;19.520;2023-12-29T22:07:17;156509.50;;;9.15
60936;BMP280;46804;51.786;19.520;2023-12-29T22:11:18;156482.63;;;9.05
60936;BMP280;46804;51.786;19.520;2023-12-29T22:15:19;156476.22;;;9.03
60936;BMP280;46804;51.786;19.520;2023-12-29T22:19:20;156456.97;;;8.95
60936;BMP280;46804;51.786;19.520;2023-12-29T22:23:20;156428.75;;;8.84
60936;BMP280;46804;51.786;19.520;2023-12-29T22:27:21;156428.75;;;8.84
60936;BMP280;46804;51.786;19.520;2023-12-29T22:31:22;156413.38;;;8.79
60936;BMP280;46804;51.786;19.520;2023-12-29T22:35:23;156385.19;;;8.68
60936;BMP280;46804;51.786;19.520;2023-12-29T22:39:23;156372.38;;;8.63
60936;BMP280;46804;51.786;19.520;2023-12-29T22:43:24;156350.59;;;8.54
60936;BMP280;46804;51.786;19.520;2023-12-29T22:47:25;156337.78;;;8.49
60936;BMP280;46804;51.786;19.520;2023-12-29T22:51:26;156336.50;;;8.49
60936;BMP280;46804;51.786;19.520;2023-12-29T22:55:29;156312.19;;;8.40
60936;BMP280;46804;51.786;19.520;2023-12-29T22:59:30;156287.81;;;8.30
60936;BMP280;46804;51.786;19.520;2023-12-29T23:03:32;156275.00;;;8.25
60936;BMP280;46804;51.786;19.520;2023-12-29T23:07:34;156277.56;;;8.26